Time;durP1;ratioP1;P1;durP2;ratioP2;P2;SDS_P1;SDS_P2;PMS_P1;PMS_P2;Temp;Humidity;BMP_temperature;BMP_pressure;BME280_temperature;BME280_humidity;BME280_pressure;Samples;Min_cycle;Max_cycle;Signal;HPM_P1;HPM_P2
2021/11/04 00:01:07;;;;;;;944.73;853.77;;;6.80;99.90;;;;;;5094275;28;20520;-84
2021/11/04 00:03:40;;;;;;;923.93;835.33;;;6.90;99.90;;;;;;5093030;28;20457;-83
2021/11/04 00:06:15;;;;;;;927.93;836.67;;;6.80;99.90;;;;;;5094186;28;20488;-84
2021/11/04 00:08:50;;;;;;;943.80;852.10;;;6.80;99.90;;;;;;5093972;28;20474;-83
2021/11/04 00:11:39;;;;;;;941.87;852.87;;;6.80;99.90;;;;;;5098987;28;20448;-83
2021/11/04 00:14:13;;;;;;;940.97;849.50;;;6.80;99.90;;;;;;5097857;28;20468;-83
2021/11/04 00:16:40;;;;;;;942.90;849.87;;;6.90;99.90;;;;;;5093877;28;20457;-83
2021/11/04 00:19:45;;;;;;;;;;;;;;;;;;;;;
2021/11/04 00:22:21;;;;;;;957.90;862.50;;;6.80;99.90;;;;;;5089886;28;20441;-84
2021/11/04 00:24:58;;;;;;;;;;;;;;;;;;;;;
2021/11/04 00:27:31;;;;;;;977.13;877.77;;;6.90;99.90;;;;;;5060039;28;20501;-84
2021/11/04 00:30:06;;;;;;;967.10;870.67;;;6.80;99.90;;;;;;5073437;28;20545;-84
2021/11/04 00:32:35;;;;;;;988.93;891.90;;;6.90;99.90;;;;;;5072285;28;20450;-84
2021/11/04 00:35:06;;;;;;;990.13;891.83;;;6.80;99.90;;;;;;5073515;28;20450;-83
2021/11/04 00:37:40;;;;;;;981.07;886.07;;;6.80;99.90;;;;;;5021912;28;20488;-84
2021/11/04 00:40:10;;;;;;;975.47;879.40;;;6.80;99.90;;;;;;5073116;28;20507;-83
2021/11/04 00:42:45;;;;;;;967.43;873.73;;;6.80;99.90;;;;;;5073292;28;20458;-83
2021/11/04 00:45:24;;;;;;;;;;;;;;;;;;;;;
2021/11/04 00:47:53;;;;;;;982.13;883.90;;;6.70;99.90;;;;;;5069519;28;20451;-83
2021/11/04 00:50:28;;;;;;;972.17;874.70;;;6.80;99.90;;;;;;5073108;28;20503;-83
2021/11/04 00:53:00;;;;;;;964.50;871.33;;;6.80;99.90;;;;;;5073079;28;20554;-83
2021/11/04 00:55:34;;;;;;;965.70;871.50;;;6.80;99.90;;;;;;5072993;28;20450;-83
2021/11/04 00:58:07;;;;;;;961.53;868.57;;;6.80;99.90;;;;;;5072952;28;20458;-84
2021/11/04 01:00:35;;;;;;;947.43;856.03;;;6.70;99.90;;;;;;5072608;28;20455;-83
2021/11/04 01:03:04;;;;;;;956.60;864.57;;;6.80;99.90;;;;;;5071642;28;20457;-83
2021/11/04 01:05:44;;;;;;;960.40;870.00;;;6.60;99.90;;;;;;5072817;28;20812;-83
2021/11/04 01:08:42;;;;;;;965.43;874.60;;;6.70;99.90;;;;;;5069534;28;20503;-83
2021/11/04 01:11:24;;;;;;;;;;;;;;;;;;;;;
2021/11/04 01:13:58;;;;;;;931.60;844.90;;;6.60;99.90;;;;;;5022594;28;20446;-83
2021/11/04 01:16:28;;;;;;;936.90;848.13;;;6.60;99.90;;;;;;5072739;28;20458;-83
2021/11/04 01:18:58;;;;;;;918.33;835.27;;;6.60;99.90;;;;;;5071624;28;20814;-83
2021/11/04 01:21:26;;;;;;;942.33;853.67;;;6.50;99.90;;;;;;5072821;28;20451;-83
2021/11/04 01:23:55;;;;;;;935.87;848.23;;;6.50;99.90;;;;;;5072540;28;20572;-83
2021/11/04 01:26:22;;;;;;;924.07;839.50;;;6.50;99.90;;;;;;5072715;28;20494;-83
2021/11/04 01:28:51;;;;;;;934.67;846.70;;;6.50;99.90;;;;;;5092847;28;20457;-83
2021/11/04 01:31:20;;;;;;;945.20;855.33;;;6.50;99.90;;;;;;5092668;28;20454;-83
2021/11/04 01:33:47;;;;;;;936.77;847.07;;;6.40;99.90;;;;;;5091697;28;20953;-83
2021/11/04 01:36:20;;;;;;;955.70;861.87;;;6.50;99.90;;;;;;5092595;28;20988;-83
2021/11/04 01:38:50;;;;;;;945.87;854.83;;;6.50;99.90;;;;;;5092706;28;20522;-83
2021/11/04 01:41:17;;;;;;;960.57;866.50;;;6.50;99.90;;;;;;5092720;28;20851;-83
2021/11/04 01:44:06;;;;;;;944.17;850.90;;;6.40;99.90;;;;;;5092679;28;20940;-84
2021/11/04 01:46:49;;;;;;;;;;;;;;;;;;;;;
2021/11/04 01:49:18;;;;;;;946.37;852.57;;;6.50;99.90;;;;;;5091122;28;20524;-83
2021/11/04 01:51:54;;;;;;;940.87;849.43;;;6.40;99.90;;;;;;5092816;28;20959;-83
2021/11/04 01:54:25;;;;;;;952.83;858.50;;;6.50;99.90;;;;;;5092539;28;20453;-83
2021/11/04 01:56:53;;;;;;;949.40;856.67;;;6.40;99.90;;;;;;5092639;28;20940;-82
2021/11/04 01:59:22;;;;;;;950.67;858.33;;;6.40;99.90;;;;;;5092330;28;20469;-83
2021/11/04 02:01:51;;;;;;;937.93;847.20;;;6.40;99.90;;;;;;5092566;28;20500;-83
2021/11/04 02:04:23;;;;;;;945.00;851.90;;;6.50;99.90;;;;;;5091687;28;20817;-83
2021/11/04 02:06:55;;;;;;;954.33;860.40;;;6.40;99.90;;;;;;5092405;28;20482;-83
2021/11/04 02:09:36;;;;;;;958.70;862.40;;;6.40;99.90;;;;;;5092676;28;20500;-83
2021/11/04 02:12:12;;;;;;;956.43;861.97;;;6.40;99.90;;;;;;5093609;28;20881;-83
2021/11/04 02:14:44;;;;;;;930.53;843.70;;;6.30;99.90;;;;;;5096243;28;20927;-83
2021/11/04 02:17:11;;;;;;;927.07;837.77;;;6.30;99.90;;;;;;5089681;28;20503;-83
2021/11/04 02:19:45;;;;;;;926.10;834.27;;;6.30;99.90;;;;;;5096066;28;20544;-83
2021/11/04 02:22:24;;;;;;;939.47;845.27;;;6.40;99.90;;;;;;5095975;28;20858;-83
2021/11/04 02:25:03;;;;;;;943.13;849.03;;;6.40;99.90;;;;;;5095764;28;20469;-83
2021/11/04 02:27:34;;;;;;;931.93;840.70;;;6.50;99.90;;;;;;5095727;28;21007;-83
2021/11/04 02:30:08;;;;;;;937.77;844.90;;;6.50;99.90;;;;;;5096010;28;20457;-83
2021/11/04 02:32:37;;;;;;;935.80;843.60;;;6.40;99.90;;;;;;5094729;28;20503;-83
2021/11/04 02:35:05;;;;;;;911.30;824.17;;;6.40;99.90;;;;;;5095885;28;20866;-83
2021/11/04 02:37:38;;;;;;;926.83;835.03;;;6.40;99.90;;;;;;5096074;28;20578;-83
2021/11/04 02:40:11;;;;;;;925.47;834.33;;;6.40;99.90;;;;;;5095668;28;20457;-83
2021/11/04 02:42:39;;;;;;;914.30;823.07;;;6.50;99.90;;;;;;5092062;28;20537;-83
2021/11/04 02:45:07;;;;;;;927.70;836.33;;;6.50;99.90;;;;;;5095669;28;20894;-82
2021/11/04 02:47:37;;;;;;;903.43;816.00;;;6.50;99.90;;;;;;5094504;28;20492;-83
2021/11/04 02:50:04;;;;;;;917.70;826.80;;;6.40;99.90;;;;;;5095622;28;20533;-83
2021/11/04 02:52:35;;;;;;;928.60;838.97;;;6.50;99.90;;;;;;5043542;28;20453;-83
2021/11/04 02:55:03;;;;;;;940.57;846.97;;;6.50;99.90;;;;;;5095566;28;20544;-83
2021/11/04 02:57:32;;;;;;;937.10;848.13;;;6.40;99.90;;;;;;5095437;28;20829;-83
2021/11/04 02:59:59;;;;;;;983.27;883.80;;;6.40;99.90;;;;;;5095549;28;20884;-83
2021/11/04 03:02:26;;;;;;;978.27;876.47;;;6.50;99.90;;;;;;5094226;28;20481;-83
2021/11/04 03:04:53;;;;;;;985.07;883.27;;;6.50;99.90;;;;;;5095239;28;20454;-83
2021/11/04 03:07:20;;;;;;;979.40;877.80;;;6.50;99.90;;;;;;5095306;28;20537;-83
2021/11/04 03:09:49;;;;;;;1000.93;893.57;;;6.50;99.90;;;;;;5095139;28;20453;-83
2021/11/04 03:12:22;;;;;;;997.57;892.50;;;6.40;99.90;;;;;;5095355;28;20461;-83
2021/11/04 03:14:52;;;;;;;1020.20;912.57;;;6.30;99.90;;;;;;5107131;28;20513;-83
2021/11/04 03:17:19;;;;;;;1022.77;919.30;;;6.40;99.90;;;;;;5073721;28;20457;-83
2021/11/04 03:19:49;;;;;;;1008.83;911.03;;;6.40;99.90;;;;;;5074775;28;20504;-83
2021/11/04 03:22:17;;;;;;;985.80;885.93;;;6.40;99.90;;;;;;5074699;28;20520;-83
2021/11/04 03:24:44;;;;;;;971.40;880.87;;;6.30;99.90;;;;;;5074387;28;20999;-82
2021/11/04 03:27:12;;;;;;;973.77;880.07;;;6.20;99.90;;;;;;5081447;28;20524;-83
2021/11/04 03:29:42;;;;;;;955.07;865.10;;;6.10;99.90;;;;;;5094856;28;20468;-83
2021/11/04 03:32:19;;;;;;;960.27;869.37;;;6.20;99.90;;;;;;5093500;28;20461;-83
2021/11/04 03:34:47;;;;;;;954.83;863.90;;;6.20;99.90;;;;;;5094669;28;20480;-83
2021/11/04 03:37:15;;;;;;;940.97;849.70;;;6.10;99.90;;;;;;5094573;28;20458;-83
2021/11/04 03:39:43;;;;;;;954.40;862.97;;;6.10;99.90;;;;;;5094659;28;20461;-82
2021/11/04 03:42:11;;;;;;;948.73;861.83;;;6.10;99.90;;;;;;5094518;28;20454;-83
2021/11/04 03:44:46;;;;;;;913.30;829.13;;;6.10;99.90;;;;;;5094859;28;20531;-82
2021/11/04 03:47:16;;;;;;;931.43;845.83;;;6.10;99.90;;;;;;5093194;28;20470;-82
2021/11/04 03:49:48;;;;;;;907.13;825.10;;;6.00;99.90;;;;;;5094753;28;20486;-82
2021/11/04 03:52:19;;;;;;;920.20;837.00;;;6.00;99.90;;;;;;5094458;28;20449;-82
2021/11/04 03:54:46;;;;;;;940.73;849.30;;;6.10;99.90;;;;;;5094285;28;20456;-82
2021/11/04 03:57:14;;;;;;;928.67;839.53;;;6.00;99.90;;;;;;5094678;28;20454;-82
2021/11/04 03:59:43;;;;;;;967.27;865.07;;;6.10;99.90;;;;;;5094360;28;20445;-82
2021/11/04 04:02:12;;;;;;;1011.07;866.30;;;6.10;99.90;;;;;;5093062;28;20450;-82
2021/11/04 04:04:40;;;;;;;1018.90;870.83;;;6.10;99.90;;;;;;5094549;28;21107;-82
2021/11/04 04:07:07;;;;;;;1045.50;884.20;;;6.00;99.90;;;;;;5093994;28;20492;-82
2021/11/04 04:09:35;;;;;;;1008.87;898.50;;;6.00;99.90;;;;;;5094151;28;20453;-82
2021/11/04 04:12:02;;;;;;;1140.90;899.70;;;6.20;99.90;;;;;;5094199;28;20546;-82
2021/11/04 04:14:32;;;;;;;1155.50;908.33;;;6.10;99.90;;;;;;5094241;28;20518;-77
2021/11/04 04:16:59;;;;;;;1074.90;903.23;;;6.10;99.90;;;;;;5092454;28;20460;-81
2021/11/04 04:19:26;;;;;;;1022.33;903.23;;;6.10;99.90;;;;;;5093885;28;20850;-82
2021/11/04 04:21:54;;;;;;;1011.53;902.67;;;6.10;99.90;;;;;;5093830;28;20545;-82
2021/11/04 04:24:23;;;;;;;1023.43;906.60;;;6.10;99.90;;;;;;5093709;28;20536;-82
2021/11/04 04:26:50;;;;;;;1032.20;921.50;;;6.00;99.90;;;;;;5093424;28;20481;-82
2021/11/04 04:29:16;;;;;;;1050.63;896.20;;;6.00;99.90;;;;;;5093650;28;20454;-75
2021/11/04 04:31:44;;;;;;;1001.20;893.57;;;6.10;99.90;;;;;;5093646;28;20536;-80
2021/11/04 04:34:11;;;;;;;1005.10;898.80;;;6.10;99.90;;;;;;5091977;28;21059;-81
2021/11/04 04:36:38;;;;;;;1008.63;903.17;;;6.10;99.90;;;;;;5093640;28;20469;-79
2021/11/04 04:39:13;;;;;;;1015.00;909.43;;;6.10;99.90;;;;;;5093453;28;20453;-82
2021/11/04 04:41:41;;;;;;;1018.53;910.30;;;6.10;99.90;;;;;;5093445;28;20473;-82
2021/11/04 04:44:07;;;;;;;990.77;889.27;;;6.10;99.90;;;;;;5093430;28;20454;-83
2021/11/04 04:46:35;;;;;;;1004.27;899.67;;;6.10;99.90;;;;;;5093304;28;20446;-82
2021/11/04 04:49:02;;;;;;;994.00;891.00;;;6.10;99.90;;;;;;5092095;28;20890;-80
2021/11/04 04:51:29;;;;;;;978.30;883.90;;;6.10;99.90;;;;;;5093283;28;20456;-82
2021/11/04 04:53:58;;;;;;;985.67;886.03;;;6.00;99.90;;;;;;5093196;28;20449;-82
2021/11/04 04:56:30;;;;;;;968.90;867.47;;;6.10;99.90;;;;;;5093241;28;20450;-82
2021/11/04 04:58:57;;;;;;;986.30;885.20;;;6.10;99.90;;;;;;5093190;28;20530;-82
2021/11/04 05:01:24;;;;;;;991.30;889.40;;;6.10;99.90;;;;;;5093023;28;20524;-82
2021/11/04 05:06:42;;;;;;;971.60;872.60;;;6.10;99.90;;;;;;5091084;28;20453;-82
2021/11/04 05:09:12;;;;;;;969.37;871.07;;;6.10;99.90;;;;;;5093051;28;20467;-82
2021/11/04 05:11:41;;;;;;;962.90;863.90;;;6.10;99.90;;;;;;5093278;28;20952;-82
2021/11/04 05:14:09;;;;;;;967.17;865.47;;;6.20;99.90;;;;;;5092899;28;20454;-81
2021/11/04 05:16:38;;;;;;;969.13;868.20;;;6.00;99.90;;;;;;5092857;28;20464;-82
2021/11/04 05:19:05;;;;;;;968.97;869.07;;;6.00;99.90;;;;;;5091710;28;20928;-82
2021/11/04 05:21:33;;;;;;;983.07;879.10;;;6.00;99.90;;;;;;5092633;28;20458;-82
2021/11/04 05:24:00;;;;;;;998.03;891.23;;;6.10;99.90;;;;;;5092977;28;20461;-82
2021/11/04 05:26:30;;;;;;;1001.00;889.63;;;6.20;99.90;;;;;;5092606;28;20544;-82
2021/11/04 05:29:13;;;;;;;995.73;889.20;;;6.20;99.90;;;;;;5057116;28;20504;-82
2021/11/04 05:31:40;;;;;;;999.40;891.13;;;6.20;99.90;;;;;;5091668;28;20532;-81
2021/11/04 05:34:07;;;;;;;979.60;871.33;;;6.10;99.90;;;;;;5091732;28;20534;-82
2021/11/04 05:36:35;;;;;;;997.23;889.20;;;6.10;99.90;;;;;;5092820;28;20476;-82
2021/11/04 05:39:03;;;;;;;976.33;875.17;;;6.10;99.90;;;;;;5092828;28;20461;-82
2021/11/04 05:41:33;;;;;;;968.87;870.00;;;6.20;99.90;;;;;;5092937;28;20955;-83
2021/11/04 05:44:06;;;;;;;963.97;866.00;;;6.20;99.90;;;;;;5092667;28;20457;-82
2021/11/04 05:46:41;;;;;;;962.77;863.47;;;6.10;99.90;;;;;;5093088;28;20449;-82
2021/11/04 05:49:31;;;;;;;953.43;854.27;;;6.00;99.90;;;;;;5095534;28;20537;-83
2021/11/04 05:51:58;;;;;;;961.90;863.20;;;5.90;99.90;;;;;;5096919;28;20452;-82
2021/11/04 05:54:25;;;;;;;963.73;863.00;;;6.10;99.90;;;;;;5096732;28;20458;-82
2021/11/04 05:56:55;;;;;;;944.40;849.10;;;6.10;99.90;;;;;;5096756;28;20445;-82
2021/11/04 05:59:21;;;;;;;971.20;869.07;;;5.90;99.90;;;;;;5096509;28;20967;-79
2021/11/04 06:01:55;;;;;;;937.80;843.57;;;6.00;99.90;;;;;;5096608;28;20562;-82
2021/11/04 06:04:34;;;;;;;926.33;836.27;;;6.00;99.90;;;;;;5095903;28;20824;-82
2021/11/04 06:07:17;;;;;;;918.33;827.40;;;5.90;99.90;;;;;;5096666;28;20457;-82
2021/11/04 06:09:47;;;;;;;919.83;829.47;;;6.10;99.90;;;;;;5096443;28;20471;-82
2021/11/04 06:12:15;;;;;;;927.60;835.83;;;6.00;99.90;;;;;;5096440;28;20476;-82
2021/11/04 06:14:52;;;;;;;;;;;;;;;;;;;;;
2021/11/04 06:17:21;;;;;;;935.07;841.43;;;6.00;99.90;;;;;;5087991;28;20510;-82
2021/11/04 06:19:51;;;;;;;906.10;819.90;;;5.90;99.90;;;;;;5096325;28;20457;-82
2021/11/04 06:22:21;;;;;;;922.40;832.07;;;5.90;99.90;;;;;;5095999;28;20449;-82
2021/11/04 06:24:48;;;;;;;908.67;821.30;;;6.00;99.90;;;;;;5096380;28;20469;-82
2021/11/04 06:27:30;;;;;;;907.33;820.83;;;6.00;99.90;;;;;;5095846;28;20445;-82
2021/11/04 06:30:04;;;;;;;910.80;825.40;;;6.00;99.90;;;;;;5095823;28;20507;-81
2021/11/04 06:32:34;;;;;;;901.40;818.20;;;5.90;99.90;;;;;;5094516;28;20464;-79
2021/11/04 06:35:07;;;;;;;893.53;810.77;;;6.00;99.90;;;;;;5095962;28;20571;-81
2021/11/04 06:37:35;;;;;;;916.47;830.53;;;6.00;99.90;;;;;;5095868;28;20518;-82
2021/11/04 06:40:10;;;;;;;927.07;837.77;;;6.10;99.90;;;;;;5095619;28;20544;-82
2021/11/04 06:42:45;;;;;;;909.77;822.83;;;6.10;99.90;;;;;;5095761;28;20454;-81
2021/11/04 06:45:12;;;;;;;919.43;833.00;;;6.10;99.90;;;;;;5095683;28;20460;-85
2021/11/04 06:47:46;;;;;;;909.50;820.83;;;6.00;99.90;;;;;;5094267;28;20513;-83
2021/11/04 06:50:16;;;;;;;901.87;816.10;;;6.10;99.90;;;;;;5095624;28;20457;-82
2021/11/04 06:52:56;;;;;;;926.13;834.27;;;6.20;99.90;;;;;;5095436;28;20975;-82
2021/11/04 06:55:26;;;;;;;928.60;839.30;;;6.10;99.90;;;;;;5095455;28;20461;-82
2021/11/04 06:57:59;;;;;;;936.30;842.40;;;6.00;99.90;;;;;;5094999;28;20488;-82
2021/11/04 07:00:29;;;;;;;938.37;845.53;;;6.20;99.90;;;;;;5095496;28;20522;-82
2021/11/04 07:03:07;;;;;;;952.10;851.23;;;6.20;99.90;;;;;;5094181;28;20489;-81
2021/11/04 07:05:35;;;;;;;942.07;845.63;;;6.20;99.90;;;;;;5095227;28;20465;-82
2021/11/04 07:08:06;;;;;;;992.90;887.53;;;6.00;99.90;;;;;;5094356;28;20456;-83
2021/11/04 07:10:37;;;;;;;946.40;848.47;;;6.10;99.90;;;;;;5095363;28;20200;-83
2021/11/04 07:13:06;;;;;;;912.67;821.20;;;6.10;99.90;;;;;;5095554;28;20495;-83
2021/11/04 07:15:35;;;;;;;925.13;832.20;;;6.10;99.90;;;;;;5095395;28;20454;-83
2021/11/04 07:18:03;;;;;;;928.90;837.67;;;6.10;99.90;;;;;;5094062;28;20540;-83
2021/11/04 07:20:35;;;;;;;911.87;824.10;;;6.20;99.90;;;;;;5095000;28;20578;-83
2021/11/04 07:23:04;;;;;;;912.40;822.50;;;6.20;99.90;;;;;;5095173;28;20446;-84
2021/11/04 07:25:31;;;;;;;932.53;835.77;;;6.20;99.90;;;;;;5094703;28;20482;-83
2021/11/04 07:28:00;;;;;;;946.23;847.37;;;6.30;99.90;;;;;;5095087;28;20469;-83
2021/11/04 07:30:30;;;;;;;946.00;845.70;;;6.30;99.90;;;;;;5094799;28;20963;-83
2021/11/04 07:32:58;;;;;;;933.67;834.00;;;6.10;99.90;;;;;;5093642;28;20470;-83
2021/11/04 07:35:28;;;;;;;934.20;833.93;;;6.20;99.90;;;;;;5095049;28;20862;-83
2021/11/04 07:37:56;;;;;;;931.33;834.60;;;6.20;99.90;;;;;;5094870;28;20491;-83
2021/11/04 07:40:30;;;;;;;930.30;834.30;;;6.10;99.90;;;;;;5094759;28;20508;-83
2021/11/04 07:43:00;;;;;;;945.83;850.53;;;6.10;99.90;;;;;;5094703;28;20986;-83
2021/11/04 07:45:32;;;;;;;948.20;851.43;;;6.20;99.90;;;;;;5092064;28;20441;-82
2021/11/04 07:48:00;;;;;;;936.77;841.50;;;6.20;99.90;;;;;;5092179;28;20469;-82
2021/11/04 07:50:31;;;;;;;951.27;856.97;;;6.00;99.90;;;;;;5093107;28;20461;-82
2021/11/04 07:52:59;;;;;;;919.07;825.57;;;6.10;99.90;;;;;;5093147;28;20847;-82
2021/11/04 07:55:27;;;;;;;922.30;827.60;;;6.10;99.90;;;;;;5093103;28;20457;-82
2021/11/04 07:57:54;;;;;;;923.27;828.40;;;6.10;99.90;;;;;;5093009;28;20948;-82
2021/11/04 08:00:28;;;;;;;920.77;824.97;;;6.10;99.90;;;;;;5092987;28;20527;-82
2021/11/04 08:02:58;;;;;;;921.53;830.23;;;6.10;99.90;;;;;;5091988;28;20453;-83
2021/11/04 08:05:28;;;;;;;917.43;828.53;;;6.10;99.90;;;;;;5092758;28;20453;-82
2021/11/04 08:07:58;;;;;;;911.17;824.30;;;6.20;99.90;;;;;;5092929;28;20549;-82
2021/11/04 08:10:25;;;;;;;926.07;843.50;;;6.20;99.90;;;;;;5091978;28;21013;-82
2021/11/04 08:12:56;;;;;;;898.80;817.60;;;6.10;99.90;;;;;;5092525;28;20450;-83
2021/11/04 08:15:30;;;;;;;900.23;822.73;;;6.10;99.90;;;;;;5092581;28;20446;-82
2021/11/04 08:17:59;;;;;;;886.03;811.80;;;6.20;99.90;;;;;;5091673;28;20864;-81
2021/11/04 08:20:26;;;;;;;866.67;793.70;;;6.20;99.90;;;;;;5092446;28;21024;-82
2021/11/04 08:22:55;;;;;;;859.30;785.90;;;6.20;99.90;;;;;;5092730;28;20454;-82
2021/11/04 08:25:22;;;;;;;857.20;785.90;;;6.40;99.90;;;;;;5092508;28;20473;-82
2021/11/04 08:27:49;;;;;;;840.43;771.87;;;6.40;99.90;;;;;;5092471;28;20481;-82
2021/11/04 08:30:31;;;;;;;832.40;765.90;;;6.50;99.90;;;;;;5092589;28;20891;-82
2021/11/04 08:33:00;;;;;;;838.07;772.60;;;6.60;99.90;;;;;;5091315;28;20484;-82
2021/11/04 08:35:28;;;;;;;820.47;757.30;;;6.60;99.90;;;;;;5092312;28;20480;-82
2021/11/04 08:37:56;;;;;;;814.70;754.43;;;6.80;99.90;;;;;;5092532;28;20453;-81
2021/11/04 08:40:23;;;;;;;812.47;753.60;;;6.90;99.90;;;;;;5092317;28;20862;-82
2021/11/04 08:42:51;;;;;;;796.53;742.00;;;7.00;99.90;;;;;;5092139;28;20454;-82
2021/11/04 08:45:19;;;;;;;779.13;729.53;;;7.00;99.90;;;;;;5092456;28;20449;-82
2021/11/04 08:47:45;;;;;;;717.80;674.77;;;7.20;99.90;;;;;;5091193;28;20572;-82
2021/11/04 08:50:13;;;;;;;689.57;649.83;;;7.40;99.90;;;;;;5091840;28;20489;-82
2021/11/04 08:52:41;;;;;;;528.23;501.20;;;7.40;99.90;;;;;;5091919;28;20453;-82
2021/11/04 08:55:22;;;;;;;600.90;568.40;;;7.20;99.90;;;;;;5092195;28;20496;-83
2021/11/04 08:57:52;;;;;;;680.70;639.87;;;7.10;99.90;;;;;;5092256;28;20464;-83
2021/11/04 09:00:20;;;;;;;673.47;631.83;;;7.00;99.90;;;;;;5091943;28;20540;-83
2021/11/04 09:02:48;;;;;;;738.87;691.90;;;7.10;99.90;;;;;;5090615;28;20454;-83
2021/11/04 09:05:16;;;;;;;639.40;603.33;;;7.10;99.90;;;;;;5056060;28;20963;-82
2021/11/04 09:07:44;;;;;;;705.77;663.77;;;6.90;99.90;;;;;;5091693;28;20537;-83
2021/11/04 09:10:15;;;;;;;698.10;654.77;;;7.00;99.90;;;;;;5091922;28;20485;-82
2021/11/04 09:12:45;;;;;;;710.27;666.70;;;7.10;99.90;;;;;;5091784;28;20457;-82
2021/11/04 09:15:13;;;;;;;740.70;694.13;;;7.00;99.90;;;;;;5092019;28;20449;-82
2021/11/04 09:17:43;;;;;;;745.43;698.40;;;7.20;99.90;;;;;;5091329;28;20786;-82
2021/11/04 09:20:14;;;;;;;732.23;685.07;;;7.20;99.90;;;;;;5093052;28;20548;-84
2021/11/04 09:22:41;;;;;;;807.00;751.05;;;7.20;99.90;;;;;;5092074;28;20460;-82
2021/11/04 09:25:09;;;;;;;762.23;711.23;;;7.20;99.90;;;;;;5092692;28;20200;-82
2021/11/04 09:27:37;;;;;;;774.60;721.17;;;7.30;99.90;;;;;;5092784;28;20453;-83
2021/11/04 09:30:05;;;;;;;756.77;706.53;;;7.30;99.90;;;;;;5092951;28;20527;-83
2021/11/04 09:32:34;;;;;;;760.97;709.20;;;7.40;99.90;;;;;;5091578;28;20501;-82
2021/11/04 09:35:03;;;;;;;775.87;722.67;;;7.60;99.90;;;;;;5092835;28;20488;-83
2021/11/04 09:37:32;;;;;;;730.63;682.17;;;7.70;99.90;;;;;;5057639;28;20503;-82
2021/11/04 09:40:02;;;;;;;710.47;665.80;;;7.80;99.90;;;;;;5092886;28;20864;-83
2021/11/04 09:42:31;;;;;;;676.47;632.17;;;8.00;99.90;;;;;;5092887;28;20827;-84
2021/11/04 09:45:01;;;;;;;585.27;549.50;;;8.00;99.90;;;;;;5092746;28;20862;-82
2021/11/04 09:47:32;;;;;;;567.03;532.53;;;8.10;99.90;;;;;;5091744;28;20789;-83
2021/11/04 09:50:04;;;;;;;538.00;505.47;;;8.10;99.90;;;;;;5092627;28;21010;-82
2021/11/04 09:52:33;;;;;;;569.17;533.93;;;8.20;99.90;;;;;;5092900;28;20446;-82
2021/11/04 09:55:05;;;;;;;539.47;505.30;;;8.30;99.90;;;;;;5092500;28;20481;-82
2021/11/04 09:57:32;;;;;;;556.27;523.47;;;8.00;99.90;;;;;;5092855;28;20456;-82
2021/11/04 10:00:03;;;;;;;543.23;510.17;;;8.10;99.90;;;;;;5092890;28;20454;-83
2021/11/04 10:02:29;;;;;;;547.10;514.37;;;8.20;99.90;;;;;;5091504;28;20944;-82
2021/11/04 10:05:04;;;;;;;554.23;520.93;;;8.30;99.90;;;;;;5092622;28;20450;-82
2021/11/04 10:07:43;;;;;;;548.27;514.93;;;8.40;99.90;;;;;;5092645;28;20471;-81
2021/11/04 10:10:13;;;;;;;540.07;504.87;;;8.60;99.90;;;;;;5092539;28;20911;-83
2021/11/04 10:12:59;;;;;;;569.77;533.33;;;8.40;99.90;;;;;;5056952;28;20442;-83
2021/11/04 10:15:28;;;;;;;639.60;599.47;;;8.40;99.90;;;;;;5092468;28;20441;-83
2021/11/04 10:18:14;;;;;;;635.20;595.20;;;8.20;99.90;;;;;;5091200;28;20510;-83
2021/11/04 10:20:41;;;;;;;677.00;634.23;;;8.30;99.90;;;;;;5092682;28;20795;-83
2021/11/04 10:23:10;;;;;;;672.73;629.63;;;8.20;99.90;;;;;;5092484;28;20443;-83
2021/11/04 10:25:39;;;;;;;708.73;662.27;;;8.40;99.90;;;;;;5092245;28;20546;-83
2021/11/04 10:28:39;;;;;;;737.97;686.70;;;8.40;99.90;;;;;;5092532;28;20956;-83
2021/11/04 10:31:13;;;;;;;691.27;646.93;;;8.60;99.90;;;;;;5092463;28;20511;-83
2021/11/04 10:33:46;;;;;;;715.03;668.03;;;8.70;99.90;;;;;;5093366;28;20450;-83
2021/11/04 10:36:15;;;;;;;686.07;643.33;;;8.90;99.90;;;;;;5096143;28;20460;-83
2021/11/04 10:38:44;;;;;;;632.80;594.20;;;8.80;99.90;;;;;;5096139;28;20453;-82
2021/11/04 10:41:19;;;;;;;671.87;630.50;;;8.80;99.90;;;;;;5095794;28;20453;-83
2021/11/04 10:43:47;;;;;;;625.27;588.27;;;9.00;99.90;;;;;;5096278;28;20457;-83
2021/11/04 10:46:40;;;;;;;618.07;582.47;;;9.00;99.90;;;;;;5095804;28;20449;-84
2021/11/04 10:49:07;;;;;;;575.83;542.87;;;9.10;99.90;;;;;;5078188;28;21102;-82
2021/11/04 10:51:35;;;;;;;583.87;550.57;;;9.20;99.90;;;;;;5097687;28;20614;-83
2021/11/04 10:54:17;;;;;;;636.47;599.63;;;9.40;99.90;;;;;;5097179;28;20454;-82
2021/11/04 10:56:50;;;;;;;514.00;485.00;;;9.60;99.90;;;;;;5095804;28;20533;-83
2021/11/04 10:59:24;;;;;;;401.37;379.63;;;9.60;99.90;;;;;;5095523;28;20571;-84
2021/11/04 11:01:54;;;;;;;330.90;312.90;;;9.70;99.90;;;;;;5095652;28;20463;-84
2021/11/04 11:04:54;;;;;;;;;;;;;;;;;;;;;
2021/11/04 11:07:48;;;;;;;;;;;;;;;;;;;;;
2021/11/04 11:10:15;;;;;;;437.17;413.00;;;9.10;99.90;;;;;;5093817;28;20504;-83
2021/11/04 11:12:42;;;;;;;602.40;565.90;;;8.80;99.90;;;;;;5094049;28;20465;-83
2021/11/04 11:15:10;;;;;;;634.20;595.30;;;8.60;99.90;;;;;;5093997;28;20549;-82
2021/11/04 11:17:41;;;;;;;668.93;631.87;;;8.60;99.90;;;;;;5092907;28;20548;-82
2021/11/04 11:20:10;;;;;;;755.73;707.43;;;8.50;99.90;;;;;;5095187;28;20453;-82
2021/11/04 11:22:39;;;;;;;762.57;712.47;;;8.40;99.90;;;;;;5095027;28;20833;-82
2021/11/04 11:25:08;;;;;;;773.20;720.20;;;8.60;99.90;;;;;;5094965;28;20462;-83
2021/11/04 11:27:36;;;;;;;776.77;723.03;;;8.70;99.90;;;;;;5095014;28;20449;-82
2021/11/04 11:30:09;;;;;;;763.27;710.80;;;8.90;99.90;;;;;;5094912;28;20848;-83
2021/11/04 11:32:38;;;;;;;762.87;711.07;;;9.10;99.90;;;;;;5093435;28;20474;-83
2021/11/04 11:35:19;;;;;;;650.40;614.33;;;9.50;99.90;;;;;;5094975;28;20849;-83
2021/11/04 11:38:03;;;;;;;536.23;507.43;;;10.00;99.90;;;;;;5094815;28;20481;-83
2021/11/04 11:40:34;;;;;;;298.73;280.40;;;10.60;99.90;;;;;;5093452;28;20446;-84
2021/11/04 11:43:09;;;;;;;168.10;154.93;;;11.00;99.90;;;;;;5094739;28;20454;-84
2021/11/04 11:45:52;;;;;;;;;;;;;;;;;;;;;
2021/11/04 11:48:23;;;;;;;88.70;61.67;;;11.70;99.90;;;;;;5077202;28;20438;-84
2021/11/04 11:58:49;;;;;;;71.70;47.90;;;11.30;93.50;;;;;;4896713;29;20951;-84
2021/11/04 12:01:21;;;;;;;82.23;54.90;;;10.80;91.30;;;;;;4879937;29;20479;-84
2021/11/04 12:04:43;;;;;;;68.03;51.50;;;10.60;92.50;;;;;;4904247;29;20486;-84
2021/11/04 12:08:02;;;;;;;;;;;;;;;;;;;;;
2021/11/04 12:14:54;;;;;;;59.77;52.13;;;11.10;91.40;;;;;;5046240;28;20525;-86
2021/11/04 12:18:07;;;;;;;61.27;45.57;;;11.20;90.40;;;;;;4884082;29;20475;-85
2021/11/04 12:24:20;;;;;;;;;;;;;;;;;;;;;
2021/11/04 12:27:20;;;;;;;;;;;;;;;;;;;;;
2021/11/04 12:29:53;;;;;;;63.70;54.50;;;10.60;89.90;;;;;;4948883;28;20447;-83
2021/11/04 12:32:22;;;;;;;62.57;55.67;;;10.60;90.70;;;;;;5028854;28;20472;-83
2021/11/04 12:35:04;;;;;;;64.80;56.10;;;10.60;90.70;;;;;;5030095;28;20475;-84
2021/11/04 12:37:39;;;;;;;66.00;58.27;;;10.50;91.00;;;;;;5038530;28;20527;-84
2021/11/04 12:40:16;;;;;;;91.33;82.73;;;10.20;91.90;;;;;;5092204;28;20554;-84
2021/11/04 12:42:49;;;;;;;134.97;124.03;;;10.10;93.40;;;;;;5092301;28;20905;-83
2021/11/04 12:45:25;;;;;;;250.53;236.83;;;9.90;94.10;;;;;;5092338;28;20446;-83
2021/11/04 12:48:01;;;;;;;314.93;299.23;;;9.90;95.90;;;;;;5091345;28;20453;-84
2021/11/04 12:50:51;;;;;;;269.83;256.53;;;10.00;96.10;;;;;;5092077;28;20948;-83
2021/11/04 12:53:20;;;;;;;239.40;227.90;;;9.80;94.70;;;;;;5090311;28;20511;-83
2021/11/04 12:55:52;;;;;;;244.30;232.43;;;9.80;94.70;;;;;;5091617;28;20461;-84
2021/11/04 12:58:23;;;;;;;292.60;279.40;;;10.00;93.80;;;;;;5093025;28;20450;-83
2021/11/04 13:01:00;;;;;;;261.73;249.23;;;10.20;92.70;;;;;;5093086;28;21057;-85
2021/11/04 13:03:35;;;;;;;76.57;69.93;;;10.40;91.10;;;;;;5092176;28;20451;-83
2021/11/04 13:06:05;;;;;;;53.20;48.20;;;10.50;90.50;;;;;;5093240;28;20494;-84
2021/11/04 13:08:33;;;;;;;57.83;52.70;;;10.40;88.40;;;;;;5093291;28;20450;-83
2021/11/04 13:11:16;;;;;;;43.57;39.10;;;10.50;90.30;;;;;;5093095;28;20813;-84
2021/11/04 13:14:01;;;;;;;32.03;28.57;;;10.10;89.50;;;;;;5093042;28;20446;-83